Kezdőlap
METAR-TAF:

METAR-TAF

Repülőterek :

olajfúró torony

Goeree Le, Hollandia

földrajzi szélesség: 51-55-33N, földrajzi hosszúság: 3-40-12E, magasság: 19 m

Jelenlegi meteorológiai megfigyelések

A jelentés 46 perccel ezelõtt készült, 12:25 UTC
Nyugat-délnyugati szél 25 kt
Hőmérséklet 9°C
Páratartalom 81%
Légköri nyomás 997 hPa
Látótávolság 10 km, vagy több

METAR: EHSC 151225Z AUTO 24025KT 9999 ///////// 09/06 Q0997 W08/H28

Idő: 14:11 (13:11 UTC)


TAF: hiányzik

Meteorológiai megfigyelések és előrejelzések több, mint 4000 repülőtéren (METAR és TAF jelentéseket).

A térképen piros és sárga pontok jelzik az elérhető meteorológiai állomásokat.

Mozgassa az egeret a pont fölött, hogy megjelenjen az állomás neve.

Azután kattintson az időjárási megfigyelések és előrejelzések megtekintéséhez.

A térkép megváltoztatása: kattintson a fekete keresztel jelölt zöld gombra ráközelítéshez, a vonallal jelölt zöld gombra távolításhoz, vagy a zöld nyilakra a szomszédos térképek eléréséhez.


METAR-TAF: